Wetterstation Vordersexau
Wetterdaten: Oktober 2016
Datum Temp. A. Feuchte A. Luftdruck Regen Wind Richtung Taupunkt Windchill Windben
09.10.2016 8,4 C 81 % 1020,8 hPa 5,7 l/m 0,0 km/h W 5,4 C 8,4 C 0,0 km/h
10.10.2016 7,4 C 79 % 1019,7 hPa 0,5 l/m 0,1 km/h N 3,9 C 7,4 C 0,0 km/h
11.10.2016 8,0 C 77 % 1015,5 hPa 0,5 l/m 0,7 km/h N-NO 4,0 C 8,0 C 0,4 km/h
12.10.2016 6,8 C 72 % 1013,9 hPa 0,0 l/m 0,0 km/h NO 1,6 C 6,8 C 0,0 km/h
13.10.2016 4,3 C 82 % 1009,6 hPa 0,0 l/m 0,0 km/h O-NO 1,5 C 4,3 C 0,0 km/h
14.10.2016 8,1 C 81 % 1004,3 hPa 0,0 l/m 0,1 km/h NO 4,9 C 8,1 C 0,0 km/h
15.10.2016 13,0 C 70 % 1011,0 hPa 0,0 l/m 5,1 km/h NO 7,3 C 12,0 C 2,8 km/h
16.10.2016 12,2 C 73 % 1018,2 hPa 0,0 l/m 0,7 km/h W 6,9 C 12,2 C 0,4 km/h
17.10.2016 12,1 C 81 % 1020,0 hPa 2,1 l/m 0,1 km/h N-NO 8,9 C 12,1 C 0,1 km/h
18.10.2016 13,2 C 76 % 1020,6 hPa 7,8 l/m 0,2 km/h SO 9,1 C 13,2 C 0,1 km/h
19.10.2016 11,5 C 76 % 1017,3 hPa 0,5 l/m 5,7 km/h W-SW 7,3 C 10,2 C 3,2 km/h
20.10.2016 9,5 C 81 % 1013,3 hPa 0,5 l/m 5,0 km/h SW 6,3 C 8,3 C 2,8 km/h
21.10.2016 8,7 C 81 % 1012,8 hPa 4,7 l/m 1,4 km/h W-NW 5,6 C 8,3 C 0,8 km/h
22.10.2016 9,0 C 71 % 1012,5 hPa 0,0 l/m 0,1 km/h N-NO 3,5 C 9,0 C 0,0 km/h
23.10.2016 5,5 C 84 % 1009,4 hPa 3,6 l/m 0,3 km/h W-NW 2,9 C 5,5 C 0,2 km/h
24.10.2016 11,4 C 79 % 1010,2 hPa 3,1 l/m 0,0 km/h N-NO 8,0 C 11,4 C 0,0 km/h
25.10.2016 13,6 C 74 % 1018,7 hPa 12,9 l/m 0,1 km/h NW 8,9 C 13,6 C 0,0 km/h
26.10.2016 11,5 C 81 % 1024,3 hPa 0,0 l/m 0,4 km/h N 8,4 C 11,5 C 0,2 km/h
27.10.2016 10,4 C 76 % 1030,3 hPa 0,0 l/m 0,0 km/h NO 6,0 C 10,4 C 0,0 km/h
28.10.2016 8,2 C 79 % 1031,7 hPa 0,0 l/m 0,1 km/h O-NO 4,8 C 8,2 C 0,0 km/h
29.10.2016 9,0 C 77 % 1030,5 hPa 0,0 l/m 0,0 km/h N-NO 5,0 C 9,0 C 0,0 km/h
30.10.2016 5,6 C 81 % 1026,6 hPa 0,0 l/m 0,2 km/h S-SO 2,6 C 5,6 C 0,1 km/h
31.10.2016 5,8 C 78 % 1024,4 hPa 0,0 l/m 0,0 km/h S 2,3 C 5,8 C 0,0 km/h
Min-Datum 13.10.16 12.10.16 14.10.16 11 Tage 09.10.16 - 13.10.16 13.10.16 09.10.16
Min-Zeit 07:12 17:12 18:12 - 11:12 - 07:12 07:12 11:12
Minimum -1,2 C 34 % 1001,1 hPa - 0,0 km/h - -3,4 C -1,2 C 0,0 km/h
Max-Datum 16.10.16 12.10.16 28.10.16 25.10.16 15.10.16 - 18.10.16 16.10.16 15.10.16
Max-Zeit 16:12 00:12 20:11 02:11 07:12 - 14:11 16:12 07:12
Maximum 25,9 C 85 % 1032,8 hPa 12,9 l/m 24,0 km/h
NO
- 15,0 C 25,9 C 13,3 km/h
NO
Durchschnitt 9,3 C 78 % 1018,1 hPa #42,0 l/m 0,9 km/h W 5,4 C 9,1 C 0,5 km/h

Durchschnitt Minimum Temp.4,7 C
Durchschnitt Maximum Temp.16,6 C
www.sexauwetter.de